Rogers Flat, California
Current Conditions -  °F | °C
As of 3:53 AM on Friday 19 Dec 2014 (Local Time) from KOVE Reporting Station
Light Rain Light Rain  
Wind Chill: 53°   Ceiling: 3500
Heat Index: 53°   Visibility: 7mi
Dew Point: 47°   Wind: 14mph
Humidity: 80%   Direction: 110°ESE
Pressure: 30.13"   Gusts: NA
Location:  39.9071°N, 121.345°W
Report Text: KOVE 191153Z AUTO 11012KT 7SM -RA FEW018 BKN035 OVC050 12/08 A3013 RMK AO2 RAE20B48 SLP206 P0000 60007 70008 T01170083 10128 20111 58010
Loading
Personal Weather Stations






























Interactive Weather Map New forecast layout! Learn more

10-Day Weather Forecast

Advertisements
Track Severe Weather on mobile